createdAt,value
2022-11-25T00:00:54.949Z,0.00
2022-11-25T00:01:54.926Z,0.00
2022-11-25T00:02:54.948Z,0.00
2022-11-25T00:03:54.854Z,0.00
2022-11-25T00:04:54.877Z,0.00
2022-11-25T00:05:54.815Z,0.00
2022-11-25T00:06:54.846Z,0.00
2022-11-25T00:07:54.860Z,0.00
2022-11-25T00:08:54.829Z,0.00
2022-11-25T00:09:54.824Z,0.00
2022-11-25T00:10:54.816Z,0.00
2022-11-25T00:11:54.747Z,0.00
2022-11-25T00:12:54.851Z,0.00
2022-11-25T00:13:54.771Z,0.00
2022-11-25T00:14:54.726Z,0.00
2022-11-25T00:15:54.728Z,0.00
2022-11-25T00:16:54.762Z,0.00
2022-11-25T00:17:54.704Z,0.00
2022-11-25T00:18:55.719Z,0.00
2022-11-25T00:19:54.659Z,0.00
2022-11-25T00:20:54.665Z,0.00
2022-11-25T00:21:54.673Z,0.00
2022-11-25T00:22:54.670Z,0.00
2022-11-25T00:23:54.615Z,0.00
2022-11-25T00:24:54.680Z,0.00
2022-11-25T00:25:54.576Z,0.00
2022-11-25T00:26:54.835Z,0.00
2022-11-25T00:27:54.572Z,0.00
2022-11-25T00:28:54.595Z,0.00
2022-11-25T00:29:55.209Z,0.00
2022-11-25T00:30:54.549Z,0.00
2022-11-25T00:31:54.585Z,0.00
2022-11-25T00:32:54.536Z,0.00
2022-11-25T00:33:54.548Z,0.00
2022-11-25T00:34:54.497Z,0.00
2022-11-25T00:35:54.549Z,0.00
2022-11-25T00:36:54.510Z,0.00
2022-11-25T00:37:54.458Z,0.00
2022-11-25T00:38:54.466Z,0.00
2022-11-25T00:39:54.494Z,0.00
2022-11-25T00:40:54.486Z,0.00
2022-11-25T00:41:54.405Z,0.00
2022-11-25T00:42:54.441Z,0.00
2022-11-25T00:43:54.390Z,0.00
2022-11-25T00:44:54.435Z,0.00
2022-11-25T00:45:54.462Z,0.00
2022-11-25T00:46:54.354Z,0.00
2022-11-25T00:47:54.345Z,0.00
2022-11-25T00:48:55.306Z,0.00
2022-11-25T00:49:54.308Z,0.00
2022-11-25T00:50:54.349Z,0.00
2022-11-25T00:51:54.310Z,0.00
2022-11-25T00:52:54.291Z,0.00
2022-11-25T00:53:58.785Z,0.00
2022-11-25T00:54:54.332Z,0.00
2022-11-25T00:55:54.248Z,0.00
2022-11-25T00:56:54.250Z,0.00
2022-11-25T00:57:54.471Z,0.00
2022-11-25T00:58:54.233Z,0.00
2022-11-25T00:59:54.241Z,0.00
2022-11-25T01:00:54.318Z,0.00
2022-11-25T01:01:54.267Z,0.00
2022-11-25T01:02:54.184Z,0.00
2022-11-25T01:03:54.171Z,0.00
2022-11-25T01:04:54.163Z,0.00
2022-11-25T01:05:54.149Z,0.00
2022-11-25T01:06:54.182Z,0.00
2022-11-25T01:07:54.189Z,0.00
2022-11-25T01:08:54.110Z,0.00
2022-11-25T01:09:54.114Z,0.00
2022-11-25T01:10:54.100Z,0.00
2022-11-25T01:11:54.062Z,0.00
2022-11-25T01:12:54.160Z,0.00
2022-11-25T01:13:59.326Z,0.00
2022-11-25T01:14:54.055Z,0.00
2022-11-25T01:15:54.032Z,0.00
2022-11-25T01:16:54.076Z,0.00
2022-11-25T01:17:54.032Z,0.00
2022-11-25T01:18:54.018Z,0.00
2022-11-25T01:19:54.090Z,0.00
2022-11-25T01:20:53.986Z,0.00
2022-11-25T01:21:53.997Z,0.00
2022-11-25T01:22:54.008Z,0.00
2022-11-25T01:23:53.937Z,0.00
2022-11-25T01:24:53.953Z,0.00
2022-11-25T01:25:53.916Z,0.00
2022-11-25T01:26:53.907Z,0.00
2022-11-25T01:27:53.920Z,0.00
2022-11-25T01:28:53.893Z,0.00
2022-11-25T01:29:53.909Z,0.00
2022-11-25T01:30:53.863Z,0.00
2022-11-25T01:31:54.854Z,0.00
2022-11-25T01:32:53.848Z,0.00
2022-11-25T01:33:53.811Z,0.00
2022-11-25T01:34:53.832Z,0.00
2022-11-25T01:35:53.866Z,0.00
2022-11-25T01:36:53.842Z,0.00
2022-11-25T01:37:53.815Z,0.00
2022-11-25T01:38:53.814Z,0.00
2022-11-25T01:39:53.754Z,0.00
2022-11-25T01:40:53.765Z,0.00
2022-11-25T01:41:53.730Z,0.00
2022-11-25T01:42:53.728Z,0.00
2022-11-25T01:43:53.746Z,0.00
2022-11-25T01:44:53.741Z,0.00
2022-11-25T01:45:53.787Z,0.00
2022-11-25T01:46:53.721Z,0.00
2022-11-25T01:47:53.671Z,0.00
2022-11-25T01:48:53.700Z,0.00
2022-11-25T01:49:53.654Z,0.00
2022-11-25T01:50:53.643Z,0.00
2022-11-25T01:51:53.619Z,0.00
2022-11-25T01:52:53.640Z,0.00
2022-11-25T01:53:53.627Z,0.00
2022-11-25T01:54:53.608Z,0.00
2022-11-25T01:55:53.593Z,0.00
2022-11-25T01:56:53.578Z,0.00
2022-11-25T01:57:53.557Z,0.00
2022-11-25T01:58:53.587Z,0.00
2022-11-25T01:59:53.564Z,0.00
2022-11-25T02:00:53.564Z,0.00
2022-11-25T02:01:53.577Z,0.00
2022-11-25T02:02:53.534Z,0.00
2022-11-25T02:03:53.512Z,0.00
2022-11-25T02:04:53.475Z,0.00
2022-11-25T02:05:53.464Z,0.00
2022-11-25T02:06:53.475Z,0.00
2022-11-25T02:07:54.503Z,0.00
2022-11-25T02:08:53.694Z,0.00
2022-11-25T02:09:53.449Z,0.00
2022-11-25T02:10:53.430Z,0.00
2022-11-25T02:11:53.408Z,0.00
2022-11-25T02:12:53.424Z,0.00
2022-11-25T02:13:53.386Z,0.00
2022-11-25T02:14:53.349Z,0.00
2022-11-25T02:15:53.357Z,0.00
2022-11-25T02:16:53.404Z,0.00
2022-11-25T02:18:00.170Z,0.00
2022-11-25T02:18:53.314Z,0.00
2022-11-25T02:19:53.312Z,0.00
2022-11-25T02:20:53.304Z,0.00
2022-11-25T02:21:53.295Z,0.00
2022-11-25T02:22:53.282Z,0.00
2022-11-25T02:23:53.308Z,0.00
2022-11-25T02:24:53.280Z,0.00
2022-11-25T02:25:53.439Z,0.00
2022-11-25T02:26:53.222Z,0.00
2022-11-25T02:27:53.283Z,0.00
2022-11-25T02:28:53.201Z,0.00
2022-11-25T02:29:53.249Z,0.00
2022-11-25T02:30:53.180Z,0.00
2022-11-25T02:31:53.293Z,0.00
2022-11-25T02:32:53.162Z,0.00
2022-11-25T02:33:53.160Z,0.00
2022-11-25T02:34:53.187Z,0.00
2022-11-25T02:35:53.389Z,0.00
2022-11-25T02:36:53.114Z,0.00
2022-11-25T02:37:53.150Z,0.00
2022-11-25T02:38:53.092Z,0.00
2022-11-25T02:39:53.091Z,0.00
2022-11-25T02:40:53.069Z,0.00
2022-11-25T02:41:53.762Z,0.00
2022-11-25T02:42:53.072Z,0.00
2022-11-25T02:43:53.047Z,0.00
2022-11-25T02:44:53.028Z,0.00
2022-11-25T02:45:53.055Z,0.00
2022-11-25T02:46:53.040Z,0.00
2022-11-25T02:47:53.001Z,0.00
2022-11-25T02:49:09.991Z,0.00
2022-11-25T02:49:52.985Z,0.00
2022-11-25T02:50:52.970Z,0.00
2022-11-25T02:51:52.957Z,0.00
2022-11-25T02:52:52.969Z,0.00
2022-11-25T02:53:52.948Z,0.00
2022-11-25T02:54:52.913Z,0.00
2022-11-25T02:55:52.991Z,0.00
2022-11-25T02:56:52.892Z,0.00
2022-11-25T02:57:52.891Z,0.00
2022-11-25T02:58:52.892Z,0.00
2022-11-25T02:59:52.881Z,0.00
2022-11-25T03:00:53.908Z,0.00
2022-11-25T03:01:52.908Z,0.00
2022-11-25T03:02:52.871Z,0.00
2022-11-25T03:03:52.831Z,0.00
2022-11-25T03:04:52.798Z,0.00
2022-11-25T03:05:52.799Z,0.00
2022-11-25T03:06:52.845Z,0.00
2022-11-25T03:07:52.827Z,0.00
2022-11-25T03:08:52.759Z,0.00
2022-11-25T03:09:52.753Z,0.00
2022-11-25T03:10:52.730Z,0.00
2022-11-25T03:11:52.782Z,0.00
2022-11-25T03:12:52.718Z,0.00
2022-11-25T03:13:52.708Z,0.00
2022-11-25T03:14:52.693Z,0.00
2022-11-25T03:15:52.688Z,0.00
2022-11-25T03:16:52.795Z,0.00
2022-11-25T03:17:52.666Z,0.00
2022-11-25T03:18:52.633Z,0.00
2022-11-25T03:19:52.652Z,0.00
2022-11-25T03:20:52.629Z,0.00
2022-11-25T03:21:52.656Z,0.00
2022-11-25T03:22:52.598Z,0.00
2022-11-25T03:23:52.604Z,0.00
2022-11-25T03:24:52.603Z,0.00
2022-11-25T03:25:52.572Z,0.00
2022-11-25T03:26:52.599Z,0.00
2022-11-25T03:27:52.559Z,0.00
2022-11-25T03:28:52.521Z,0.00
2022-11-25T03:29:52.579Z,0.00
2022-11-25T03:30:52.518Z,0.00
2022-11-25T03:31:52.764Z,0.00
2022-11-25T03:32:52.486Z,0.00
2022-11-25T03:33:52.529Z,0.00
2022-11-25T03:34:52.459Z,0.00
2022-11-25T03:35:52.459Z,0.00
2022-11-25T03:36:52.554Z,0.00
2022-11-25T03:37:52.443Z,0.00
2022-11-25T03:38:52.416Z,0.00
2022-11-25T03:39:52.415Z,0.00
2022-11-25T03:40:52.386Z,0.00
2022-11-25T03:41:52.451Z,0.00
2022-11-25T03:42:52.364Z,0.00
2022-11-25T03:43:52.408Z,0.00
2022-11-25T03:44:52.356Z,0.00
2022-11-25T03:45:52.377Z,0.00
2022-11-25T03:46:52.321Z,0.00
2022-11-25T03:47:52.367Z,0.00
2022-11-25T03:48:52.300Z,0.00
2022-11-25T03:49:52.300Z,0.00
2022-11-25T03:50:52.287Z,0.00
2022-11-25T03:51:52.278Z,0.00
2022-11-25T03:52:52.293Z,0.00
2022-11-25T03:53:52.260Z,0.00
2022-11-25T03:54:52.239Z,0.00
2022-11-25T03:55:52.233Z,0.00
2022-11-25T03:56:52.210Z,0.00
2022-11-25T03:57:52.253Z,0.00
2022-11-25T03:58:52.186Z,0.00
2022-11-25T03:59:52.203Z,0.00
2022-11-25T04:00:52.263Z,0.00
2022-11-25T04:01:52.226Z,0.00
2022-11-25T04:02:52.262Z,0.00
2022-11-25T04:03:52.181Z,0.00
2022-11-25T04:04:52.120Z,0.00
2022-11-25T04:05:52.129Z,0.00
2022-11-25T04:06:52.130Z,0.00
2022-11-25T04:07:56.396Z,0.00
2022-11-25T04:08:52.082Z,0.00
2022-11-25T04:09:52.072Z,0.00
2022-11-25T04:10:52.045Z,0.00
2022-11-25T04:11:52.103Z,0.00
2022-11-25T04:12:52.038Z,0.00
2022-11-25T04:13:52.038Z,0.00
2022-11-25T04:14:52.017Z,0.00
2022-11-25T04:15:52.008Z,0.00
2022-11-25T04:16:52.133Z,0.00
2022-11-25T04:17:51.996Z,0.00
2022-11-25T04:18:52.744Z,0.00
2022-11-25T04:19:52.006Z,0.00
2022-11-25T04:20:51.946Z,0.00
2022-11-25T04:21:52.577Z,0.00
2022-11-25T04:22:51.924Z,0.00
2022-11-25T04:23:51.915Z,0.00
2022-11-25T04:24:51.903Z,0.00
2022-11-25T04:25:51.940Z,0.00
2022-11-25T04:26:51.877Z,0.00
2022-11-25T04:27:51.874Z,0.00
2022-11-25T04:28:53.093Z,0.00
2022-11-25T04:29:51.876Z,0.00
2022-11-25T04:30:51.961Z,0.00
2022-11-25T04:31:51.875Z,0.00
2022-11-25T04:32:51.808Z,0.00
2022-11-25T04:33:52.874Z,0.00
2022-11-25T04:34:51.787Z,0.00
2022-11-25T04:35:51.839Z,0.00
2022-11-25T04:36:51.796Z,0.00
2022-11-25T04:37:51.759Z,0.00
2022-11-25T04:38:51.743Z,0.00
2022-11-25T04:39:51.740Z,0.00
2022-11-25T04:40:51.723Z,0.00
2022-11-25T04:41:51.719Z,0.00
2022-11-25T04:42:54.937Z,0.00
2022-11-25T04:43:51.698Z,0.00
2022-11-25T04:45:14.123Z,0.00
2022-11-25T04:46:13.195Z,0.00
2022-11-25T04:46:51.871Z,0.00
2022-11-25T04:47:51.712Z,0.00
2022-11-25T04:48:51.653Z,0.00
2022-11-25T04:49:51.629Z,0.00
2022-11-25T04:50:51.642Z,0.00
2022-11-25T04:51:51.602Z,0.00
2022-11-25T04:52:51.579Z,0.00
2022-11-25T04:53:51.628Z,0.00
2022-11-25T04:54:51.553Z,0.00
2022-11-25T04:55:51.554Z,0.00
2022-11-25T04:56:51.588Z,0.00
2022-11-25T04:57:51.534Z,0.00
2022-11-25T04:58:51.510Z,0.00
2022-11-25T04:59:51.557Z,0.00
2022-11-25T05:00:51.519Z,0.00
2022-11-25T05:01:51.589Z,0.00
2022-11-25T05:02:51.518Z,0.00
2022-11-25T05:03:57.111Z,0.00
2022-11-25T05:04:51.450Z,0.00
2022-11-25T05:05:51.446Z,0.00
2022-11-25T05:06:51.463Z,0.00
2022-11-25T05:07:51.497Z,0.00
2022-11-25T05:08:51.402Z,0.00
2022-11-25T05:09:51.403Z,0.00
2022-11-25T05:10:52.392Z,0.00
2022-11-25T05:11:51.423Z,0.00
2022-11-25T05:12:51.354Z,0.00
2022-11-25T05:13:51.348Z,0.00
2022-11-25T05:14:51.329Z,0.00
2022-11-25T05:15:51.337Z,0.00
2022-11-25T05:16:51.412Z,0.00
2022-11-25T05:17:51.322Z,0.00
2022-11-25T05:18:51.290Z,0.00
2022-11-25T05:19:51.556Z,0.00
2022-11-25T05:20:51.267Z,0.00
2022-11-25T05:21:51.300Z,0.00
2022-11-25T05:22:51.244Z,0.00
2022-11-25T05:23:55.684Z,0.00
2022-11-25T05:24:51.229Z,0.00
2022-11-25T05:25:51.231Z,0.00
2022-11-25T05:26:51.203Z,0.00
2022-11-25T05:27:51.199Z,0.00
2022-11-25T05:28:51.207Z,0.00
2022-11-25T05:29:55.673Z,0.00
2022-11-25T05:30:51.215Z,0.00
2022-11-25T05:31:51.155Z,0.00
2022-11-25T05:32:51.162Z,0.00
2022-11-25T05:33:51.165Z,0.00
2022-11-25T05:34:51.138Z,0.00
2022-11-25T05:35:51.109Z,0.00
2022-11-25T05:36:51.085Z,0.00
2022-11-25T05:37:51.085Z,0.00
2022-11-25T05:38:51.064Z,0.00
2022-11-25T05:39:51.104Z,0.00
2022-11-25T05:40:51.045Z,0.00
2022-11-25T05:41:51.308Z,0.00
2022-11-25T05:42:51.068Z,0.00
2022-11-25T05:43:51.020Z,0.00
2022-11-25T05:44:51.103Z,0.00
2022-11-25T05:45:51.158Z,0.00
2022-11-25T05:46:50.980Z,0.00
2022-11-25T05:47:51.017Z,0.00
2022-11-25T05:48:50.969Z,0.00
2022-11-25T05:49:50.956Z,0.00
2022-11-25T05:50:50.941Z,0.00
2022-11-25T05:51:50.948Z,0.00
2022-11-25T05:52:58.118Z,0.00
2022-11-25T05:53:58.825Z,0.00
2022-11-25T05:54:58.060Z,0.00
2022-11-25T05:55:50.876Z,0.00
2022-11-25T05:56:50.890Z,0.00
2022-11-25T05:57:50.942Z,0.00
2022-11-25T05:58:51.136Z,0.00
2022-11-25T05:59:50.850Z,0.00
2022-11-25T06:00:50.852Z,0.00
2022-11-25T06:01:50.818Z,0.00
2022-11-25T06:02:50.982Z,0.00
2022-11-25T06:03:50.848Z,0.00
2022-11-25T06:04:50.788Z,0.00
2022-11-25T06:05:50.762Z,0.00
2022-11-25T06:06:50.765Z,0.00
2022-11-25T06:07:50.779Z,0.00
2022-11-25T06:08:50.768Z,0.00
2022-11-25T06:09:50.720Z,0.00
2022-11-25T06:10:50.701Z,0.00
2022-11-25T06:11:50.687Z,0.00
2022-11-25T06:12:50.749Z,0.00
2022-11-25T06:13:50.774Z,0.00
2022-11-25T06:14:50.753Z,0.00
2022-11-25T06:15:50.723Z,0.00
2022-11-25T06:16:50.639Z,0.00
2022-11-25T06:17:50.651Z,0.00
2022-11-25T06:18:50.623Z,0.00
2022-11-25T06:19:50.644Z,0.00
2022-11-25T06:20:50.595Z,0.00
2022-11-25T06:21:50.609Z,0.00
2022-11-25T06:22:50.614Z,0.00
2022-11-25T06:23:50.572Z,0.00
2022-11-25T06:24:58.910Z,0.00
2022-11-25T06:25:50.591Z,0.00
2022-11-25T06:26:50.573Z,0.00
2022-11-25T06:28:11.983Z,0.00
2022-11-25T06:30:17.955Z,0.00
2022-11-25T06:31:26.540Z,0.00
2022-11-25T06:32:19.223Z,0.00
2022-11-25T06:33:18.957Z,0.00
2022-11-25T06:34:18.954Z,0.00
2022-11-25T06:35:25.840Z,0.00
2022-11-25T06:36:18.895Z,0.00
2022-11-25T06:37:19.148Z,0.00
2022-11-25T06:38:18.881Z,0.00
2022-11-25T06:39:18.943Z,0.00
2022-11-25T06:40:18.862Z,0.00
2022-11-25T06:41:18.868Z,0.00
2022-11-25T06:42:18.819Z,0.00
2022-11-25T06:43:18.959Z,4.00
2022-11-25T06:44:19.715Z,4.00
2022-11-25T06:45:18.860Z,4.00
2022-11-25T06:46:24.376Z,0.00
2022-11-25T06:47:18.787Z,4.00
2022-11-25T06:48:18.810Z,4.00
2022-11-25T06:49:18.763Z,4.00
2022-11-25T06:50:18.739Z,4.00
2022-11-25T06:51:18.755Z,8.00
2022-11-25T06:52:18.721Z,4.00
2022-11-25T06:53:23.845Z,8.00
2022-11-25T06:54:18.755Z,12.00
2022-11-25T06:55:18.743Z,12.00
2022-11-25T06:56:18.701Z,12.00
2022-11-25T06:57:18.683Z,16.00
2022-11-25T06:58:34.910Z,16.00
2022-11-25T06:59:18.708Z,20.00
2022-11-25T07:00:18.674Z,20.00
2022-11-25T07:01:18.709Z,24.00
2022-11-25T07:02:18.644Z,28.00
2022-11-25T07:03:18.672Z,28.00
2022-11-25T07:04:19.223Z,32.00
2022-11-25T07:05:18.703Z,36.00
2022-11-25T07:06:18.559Z,40.00
2022-11-25T07:07:18.675Z,44.00
2022-11-25T07:08:19.179Z,48.00
2022-11-25T07:09:18.569Z,56.00
2022-11-25T07:10:18.581Z,60.00
2022-11-25T07:11:18.573Z,64.00
2022-11-25T07:12:18.493Z,64.00
2022-11-25T07:13:19.519Z,76.00
2022-11-25T07:14:18.515Z,84.00
2022-11-25T07:15:18.489Z,84.00
2022-11-25T07:16:18.578Z,96.00
2022-11-25T07:17:18.468Z,100.00
2022-11-25T07:18:18.472Z,100.00
2022-11-25T07:19:18.427Z,116.00
2022-11-25T07:20:18.436Z,124.00
2022-11-25T07:21:18.447Z,136.00
2022-11-25T07:22:18.663Z,148.00
2022-11-25T07:23:18.403Z,168.00
2022-11-25T07:24:18.388Z,192.00
2022-11-25T07:25:18.480Z,204.00
2022-11-25T07:26:18.333Z,220.00
2022-11-25T07:27:18.343Z,232.00
2022-11-25T07:28:18.310Z,240.00
2022-11-25T07:29:44.361Z,248.00
2022-11-25T07:31:21.155Z,260.00
2022-11-25T07:31:31.725Z,252.00
2022-11-25T07:32:18.280Z,248.00
2022-11-25T07:33:18.469Z,272.00
2022-11-25T07:34:18.250Z,308.00
2022-11-25T07:35:18.320Z,320.00
2022-11-25T07:36:18.249Z,360.00
2022-11-25T07:37:18.250Z,380.00
2022-11-25T07:38:18.213Z,396.00
2022-11-25T07:39:18.255Z,416.00
2022-11-25T07:40:18.223Z,440.00
2022-11-25T07:41:18.244Z,476.00
2022-11-25T07:42:18.223Z,516.00
2022-11-25T07:43:18.179Z,544.00
2022-11-25T07:44:18.157Z,528.00
2022-11-25T07:45:18.198Z,472.00
2022-11-25T07:46:22.000Z,464.00
2022-11-25T07:47:18.166Z,496.00
2022-11-25T07:48:18.174Z,504.00
2022-11-25T07:49:18.089Z,556.00
2022-11-25T07:50:18.120Z,580.00
2022-11-25T07:51:18.111Z,576.00
2022-11-25T07:52:18.108Z,592.00
2022-11-25T07:53:18.079Z,576.00
2022-11-25T07:54:18.071Z,544.00
2022-11-25T07:55:18.068Z,512.00
2022-11-25T07:56:18.049Z,520.00
2022-11-25T07:57:18.078Z,572.00
2022-11-25T07:58:18.018Z,620.00
2022-11-25T07:59:18.100Z,684.00
2022-11-25T08:00:18.036Z,756.00
2022-11-25T08:01:18.760Z,812.00
2022-11-25T08:02:18.057Z,888.00
2022-11-25T08:03:18.889Z,980.00
2022-11-25T08:04:20.484Z,1096.00
2022-11-25T08:05:17.987Z,1228.00
2022-11-25T08:06:17.925Z,1356.00
2022-11-25T08:07:18.047Z,1464.00
2022-11-25T08:08:17.915Z,1548.00
2022-11-25T08:09:17.882Z,1600.00
2022-11-25T08:10:17.932Z,1636.00
2022-11-25T08:11:17.924Z,1668.00
2022-11-25T08:12:17.952Z,1712.00
2022-11-25T08:13:17.978Z,1772.00
2022-11-25T08:14:17.863Z,1832.00
2022-11-25T08:15:17.874Z,1868.00
2022-11-25T08:16:17.925Z,1880.00
2022-11-25T08:17:18.737Z,1868.00
2022-11-25T08:18:17.789Z,1840.00
2022-11-25T08:19:18.167Z,1804.00
2022-11-25T08:20:18.121Z,1764.00
2022-11-25T08:21:17.824Z,1716.00
2022-11-25T08:22:17.716Z,1676.00
2022-11-25T08:23:17.710Z,1660.00
2022-11-25T08:24:18.715Z,1656.00
2022-11-25T08:25:17.692Z,1672.00
2022-11-25T08:26:17.734Z,1700.00
2022-11-25T08:27:17.692Z,1728.00
2022-11-25T08:28:17.706Z,1780.00
2022-11-25T08:29:17.654Z,1844.00
2022-11-25T08:30:17.679Z,1912.00
2022-11-25T08:31:17.682Z,2004.00
2022-11-25T08:32:18.206Z,2128.00
2022-11-25T08:33:17.660Z,2284.00
2022-11-25T08:34:17.614Z,2460.00
2022-11-25T08:35:17.599Z,2624.00
2022-11-25T08:36:17.564Z,2776.00
2022-11-25T08:37:17.553Z,2904.00
2022-11-25T08:38:17.600Z,3024.00
2022-11-25T08:39:44.307Z,3136.00
2022-11-25T08:40:17.516Z,3236.00
2022-11-25T08:41:17.544Z,3332.00
2022-11-25T08:42:17.500Z,3404.00
2022-11-25T08:43:17.547Z,3468.00
2022-11-25T08:44:17.463Z,3516.00
2022-11-25T08:45:17.462Z,3556.00
2022-11-25T08:46:17.613Z,3600.00
2022-11-25T08:47:17.557Z,3632.00
2022-11-25T08:48:17.484Z,3632.00
2022-11-25T08:49:17.512Z,3588.00
2022-11-25T08:50:17.443Z,3512.00
2022-11-25T08:51:17.439Z,3428.00
2022-11-25T08:52:17.410Z,3352.00
2022-11-25T08:53:17.384Z,3288.00
2022-11-25T08:54:17.352Z,3264.00
2022-11-25T08:55:18.080Z,3252.00
2022-11-25T08:56:20.304Z,3216.00
2022-11-25T08:57:17.336Z,3180.00
2022-11-25T08:58:17.301Z,3124.00
2022-11-25T08:59:17.342Z,3048.00
2022-11-25T09:00:17.336Z,2948.00
2022-11-25T09:01:17.363Z,2836.00
2022-11-25T09:02:17.360Z,2744.00
2022-11-25T09:03:17.328Z,2772.00
2022-11-25T09:04:17.239Z,3040.00
2022-11-25T09:05:17.253Z,3484.00
2022-11-25T09:06:17.374Z,3784.00
2022-11-25T09:07:17.337Z,3928.00
2022-11-25T09:08:17.268Z,4036.00
2022-11-25T09:09:17.282Z,4116.00
2022-11-25T09:10:17.181Z,4240.00
2022-11-25T09:11:17.368Z,4560.00
2022-11-25T09:12:17.162Z,4720.00
2022-11-25T09:13:17.183Z,4820.00
2022-11-25T09:14:17.259Z,4888.00
2022-11-25T09:15:17.195Z,4952.00
2022-11-25T09:16:17.211Z,5080.00
2022-11-25T09:17:17.237Z,5196.00
2022-11-25T09:18:17.156Z,5312.00
2022-11-25T09:19:17.139Z,5340.00
2022-11-25T09:20:17.059Z,5336.00
2022-11-25T09:21:17.215Z,5264.00
2022-11-25T09:22:17.110Z,5060.00
2022-11-25T09:23:17.047Z,4816.00
2022-11-25T09:24:17.062Z,4640.00
2022-11-25T09:25:17.019Z,4368.00
2022-11-25T09:26:17.008Z,4388.00
2022-11-25T09:27:17.085Z,4472.00
2022-11-25T09:28:16.983Z,4472.00
2022-11-25T09:29:16.981Z,4452.00
2022-11-25T09:30:17.053Z,4444.00
2022-11-25T09:31:17.074Z,4324.00
2022-11-25T09:32:16.961Z,4244.00
2022-11-25T09:33:17.051Z,4212.00
2022-11-25T09:34:16.952Z,3956.00
2022-11-25T09:35:19.265Z,4324.00
2022-11-25T09:36:16.880Z,4856.00
2022-11-25T09:37:16.923Z,4912.00
2022-11-25T09:38:16.908Z,5816.00
2022-11-25T09:39:16.882Z,6552.00
2022-11-25T09:40:16.841Z,6656.00
2022-11-25T09:41:16.924Z,6908.00
2022-11-25T09:42:16.842Z,6732.00
2022-11-25T09:43:16.861Z,6764.00
2022-11-25T09:44:16.792Z,6848.00
2022-11-25T09:45:16.800Z,6592.00
2022-11-25T09:46:16.861Z,6136.00
2022-11-25T09:47:16.813Z,5892.00
2022-11-25T09:48:16.743Z,5388.00
2022-11-25T09:49:16.750Z,5340.00
2022-11-25T09:50:16.738Z,5364.00
2022-11-25T09:51:17.830Z,5340.00
2022-11-25T09:52:16.712Z,5136.00
2022-11-25T09:53:16.785Z,5044.00
2022-11-25T09:54:16.900Z,4924.00
2022-11-25T09:55:16.744Z,4828.00
2022-11-25T09:56:16.723Z,5040.00
2022-11-25T09:57:16.690Z,4968.00
2022-11-25T09:58:16.974Z,5404.00
2022-11-25T09:59:16.626Z,4824.00
2022-11-25T10:00:16.649Z,4520.00
2022-11-25T10:01:16.619Z,5296.00
2022-11-25T10:02:16.696Z,5356.00
2022-11-25T10:03:16.631Z,6168.00
2022-11-25T10:04:16.664Z,6000.00
2022-11-25T10:05:16.588Z,6448.00
2022-11-25T10:06:16.741Z,6812.00
2022-11-25T10:07:16.636Z,7792.00
2022-11-25T10:08:16.571Z,7764.00
2022-11-25T10:09:16.586Z,8084.00
2022-11-25T10:10:16.635Z,7960.00
2022-11-25T10:11:16.587Z,7888.00
2022-11-25T10:12:16.505Z,8192.00
2022-11-25T10:13:16.477Z,8736.00
2022-11-25T10:14:16.512Z,9192.00
2022-11-25T10:15:16.465Z,8784.00
2022-11-25T10:16:16.544Z,9456.00
2022-11-25T10:17:16.416Z,9308.00
2022-11-25T10:18:16.415Z,9160.00
2022-11-25T10:19:16.429Z,9068.00
2022-11-25T10:20:16.460Z,9196.00
2022-11-25T10:21:16.397Z,8372.00
2022-11-25T10:22:16.387Z,7852.00
2022-11-25T10:23:17.111Z,7440.00
2022-11-25T10:24:16.345Z,7300.00
2022-11-25T10:25:16.371Z,7080.00
2022-11-25T10:26:16.354Z,6788.00
2022-11-25T10:27:16.301Z,6580.00
2022-11-25T10:28:16.612Z,6344.00
2022-11-25T10:29:16.294Z,6076.00
2022-11-25T10:30:16.353Z,6084.00
2022-11-25T10:31:16.403Z,6044.00
2022-11-25T10:32:16.297Z,5960.00
2022-11-25T10:33:16.413Z,5952.00
2022-11-25T10:34:16.350Z,6068.00
2022-11-25T10:35:16.319Z,6076.00
2022-11-25T10:36:16.301Z,6076.00
2022-11-25T10:37:16.234Z,6156.00
2022-11-25T10:38:19.112Z,6188.00
2022-11-25T10:39:16.209Z,6160.00
2022-11-25T10:40:16.252Z,6280.00
2022-11-25T10:41:16.271Z,6444.00
2022-11-25T10:42:16.222Z,7320.00
2022-11-25T10:43:16.192Z,8072.00
2022-11-25T10:44:16.733Z,7216.00
2022-11-25T10:45:16.137Z,7008.00
2022-11-25T10:46:16.229Z,6412.00
2022-11-25T10:47:16.434Z,6832.00
2022-11-25T10:48:16.109Z,6248.00
2022-11-25T10:49:16.135Z,5972.00
2022-11-25T10:50:16.145Z,5688.00
2022-11-25T10:51:16.095Z,5548.00
2022-11-25T10:52:16.076Z,5864.00
2022-11-25T10:53:16.069Z,6336.00
2022-11-25T10:54:16.110Z,6060.00
2022-11-25T10:55:16.132Z,5784.00
2022-11-25T10:56:16.059Z,5900.00
2022-11-25T10:57:16.057Z,5688.00
2022-11-25T10:58:16.020Z,5712.00
2022-11-25T10:59:16.012Z,5620.00
2022-11-25T11:00:17.589Z,5288.00
2022-11-25T11:01:16.039Z,5216.00
2022-11-25T11:02:16.179Z,5288.00
2022-11-25T11:03:15.971Z,5720.00
2022-11-25T11:04:15.962Z,5540.00
2022-11-25T11:05:15.911Z,5956.00
2022-11-25T11:06:15.884Z,5784.00
2022-11-25T11:07:15.984Z,5784.00
2022-11-25T11:08:15.875Z,5980.00
2022-11-25T11:09:15.868Z,6060.00
2022-11-25T11:10:15.850Z,6092.00
2022-11-25T11:11:15.810Z,5948.00
2022-11-25T11:12:15.820Z,5764.00
2022-11-25T11:13:15.886Z,5880.00
2022-11-25T11:14:15.797Z,5892.00
2022-11-25T11:15:15.799Z,5732.00
2022-11-25T11:16:15.801Z,5628.00
2022-11-25T11:17:15.877Z,5580.00
2022-11-25T11:18:15.817Z,5616.00
2022-11-25T11:19:15.770Z,5704.00
2022-11-25T11:20:15.830Z,5900.00
2022-11-25T11:21:16.973Z,6384.00
2022-11-25T11:22:15.775Z,6456.00
2022-11-25T11:23:15.745Z,6396.00
2022-11-25T11:24:15.699Z,6420.00
2022-11-25T11:25:15.757Z,6428.00
2022-11-25T11:26:15.652Z,6300.00
2022-11-25T11:27:15.680Z,6364.00
2022-11-25T11:28:15.639Z,6456.00
2022-11-25T11:29:15.809Z,6524.00
2022-11-25T11:30:15.730Z,6616.00
2022-11-25T11:31:15.698Z,6572.00
2022-11-25T11:32:15.619Z,6584.00
2022-11-25T11:33:15.564Z,6628.00
2022-11-25T11:34:15.608Z,6620.00
2022-11-25T11:35:15.567Z,6620.00
2022-11-25T11:36:15.557Z,6524.00
2022-11-25T11:37:15.519Z,6524.00
2022-11-25T11:38:15.573Z,6560.00
2022-11-25T11:39:15.578Z,6484.00
2022-11-25T11:40:15.495Z,6448.00
2022-11-25T11:41:22.143Z,6472.00
2022-11-25T11:42:15.477Z,6472.00
2022-11-25T11:43:15.514Z,6448.00
2022-11-25T11:44:15.486Z,6396.00
2022-11-25T11:45:15.433Z,6388.00
2022-11-25T11:46:15.496Z,6360.00
2022-11-25T11:47:15.401Z,6400.00
2022-11-25T11:48:15.467Z,6432.00
2022-11-25T11:49:15.380Z,6484.00
2022-11-25T11:50:15.378Z,6632.00
2022-11-25T11:51:15.358Z,6568.00
2022-11-25T11:52:15.536Z,6476.00
2022-11-25T11:53:15.380Z,6540.00
2022-11-25T11:54:15.350Z,6584.00
2022-11-25T11:55:15.328Z,6576.00
2022-11-25T11:57:15.314Z,6484.00
2022-11-25T11:58:15.327Z,6384.00
2022-11-25T11:59:15.728Z,6336.00
2022-11-25T12:00:15.281Z,6412.00
2022-11-25T12:01:15.322Z,6440.00
2022-11-25T12:02:15.392Z,6416.00
2022-11-25T12:03:15.773Z,6364.00
2022-11-25T12:04:15.289Z,6284.00
2022-11-25T12:05:15.231Z,6340.00
2022-11-25T12:06:15.231Z,6376.00
2022-11-25T12:07:15.267Z,6312.00
2022-11-25T12:08:15.220Z,6328.00
2022-11-25T12:09:15.241Z,6356.00
2022-11-25T12:10:15.351Z,6344.00
2022-11-25T12:11:15.204Z,6360.00
2022-11-25T12:12:15.155Z,6380.00
2022-11-25T12:13:15.121Z,6412.00
2022-11-25T12:14:15.130Z,6464.00
2022-11-25T12:15:15.125Z,6492.00
2022-11-25T12:16:15.169Z,6532.00
2022-11-25T12:17:15.058Z,6552.00
2022-11-25T12:18:15.105Z,6568.00
2022-11-25T12:19:15.038Z,6616.00
2022-11-25T12:20:15.048Z,6624.00
2022-11-25T12:21:15.064Z,6652.00
2022-11-25T12:22:15.711Z,6684.00
2022-11-25T12:23:14.997Z,6692.00
2022-11-25T12:24:15.012Z,6712.00
2022-11-25T12:25:14.999Z,6752.00
2022-11-25T12:26:15.522Z,6796.00
2022-11-25T12:27:14.983Z,6832.00
2022-11-25T12:28:15.009Z,6892.00
2022-11-25T12:29:14.958Z,6856.00
2022-11-25T12:30:14.937Z,6804.00
2022-11-25T12:31:14.989Z,6780.00
2022-11-25T12:32:14.954Z,6792.00
2022-11-25T12:33:14.876Z,6840.00
2022-11-25T12:34:14.889Z,6900.00
2022-11-25T12:35:14.860Z,8260.00
2022-11-25T12:36:14.866Z,10340.00
2022-11-25T12:37:15.472Z,10588.00
2022-11-25T12:38:14.876Z,10304.00
2022-11-25T12:39:14.809Z,9912.00
2022-11-25T12:40:14.876Z,9484.00
2022-11-25T12:41:14.803Z,9044.00
2022-11-25T12:42:14.878Z,8720.00
2022-11-25T12:43:14.811Z,8600.00
2022-11-25T12:44:14.768Z,8524.00
2022-11-25T12:45:14.761Z,8400.00
2022-11-25T12:46:14.846Z,8336.00
2022-11-25T12:47:14.771Z,8272.00
2022-11-25T12:48:19.984Z,8224.00